createdAt,value
2019-02-16T00:02:14.046Z,6.39
2019-02-16T00:04:42.236Z,6.37
2019-02-16T00:07:10.437Z,6.36
2019-02-16T00:09:38.644Z,6.34
2019-02-16T00:12:06.843Z,6.31
2019-02-16T00:14:35.036Z,6.25
2019-02-16T00:17:03.231Z,6.22
2019-02-16T00:19:31.414Z,6.20
2019-02-16T00:21:59.627Z,6.18
2019-02-16T00:24:27.822Z,6.17
2019-02-16T00:26:56.029Z,6.17
2019-02-16T00:29:24.234Z,6.17
2019-02-16T00:31:52.437Z,6.18
2019-02-16T00:34:20.640Z,6.18
2019-02-16T00:36:48.836Z,6.17
2019-02-16T00:39:17.058Z,6.18
2019-02-16T00:41:45.276Z,6.16
2019-02-16T00:44:13.455Z,6.12
2019-02-16T00:46:41.666Z,6.09
2019-02-16T00:49:09.857Z,6.05
2019-02-16T00:51:38.087Z,6.01
2019-02-16T00:54:06.268Z,5.96
2019-02-16T00:56:34.496Z,5.89
2019-02-16T00:59:02.666Z,5.85
2019-02-16T01:01:30.864Z,5.80
2019-02-16T01:03:59.076Z,5.78
2019-02-16T01:06:27.269Z,5.74
2019-02-16T01:08:55.452Z,5.71
2019-02-16T01:11:23.655Z,5.66
2019-02-16T01:13:51.846Z,5.59
2019-02-16T01:16:20.035Z,5.55
2019-02-16T01:18:48.248Z,5.49
2019-02-16T01:21:22.497Z,5.44
2019-02-16T01:23:46.364Z,5.38
2019-02-16T01:26:14.561Z,5.33
2019-02-16T01:28:42.743Z,5.30
2019-02-16T01:31:10.934Z,5.27
2019-02-16T01:33:39.148Z,5.22
2019-02-16T01:36:07.352Z,5.20
2019-02-16T01:38:35.560Z,5.17
2019-02-16T01:41:03.741Z,5.14
2019-02-16T01:43:31.937Z,5.11
2019-02-16T01:46:00.126Z,5.04
2019-02-16T01:48:28.330Z,4.98
2019-02-16T01:50:56.542Z,4.93
2019-02-16T01:53:24.741Z,4.89
2019-02-16T01:55:52.937Z,4.86
2019-02-16T01:58:21.139Z,4.81
2019-02-16T02:00:49.320Z,4.77
2019-02-16T02:03:17.519Z,4.71
2019-02-16T02:05:45.699Z,4.68
2019-02-16T02:08:13.966Z,4.64
2019-02-16T02:10:42.174Z,4.61
2019-02-16T02:13:10.340Z,4.59
2019-02-16T02:15:38.537Z,4.57
2019-02-16T02:18:06.751Z,4.56
2019-02-16T02:20:34.933Z,4.52
2019-02-16T02:23:03.131Z,4.50
2019-02-16T02:25:31.311Z,4.45
2019-02-16T02:27:59.530Z,4.42
2019-02-16T02:30:27.745Z,4.39
2019-02-16T02:32:55.910Z,4.34
2019-02-16T02:35:24.096Z,4.34
2019-02-16T02:37:52.296Z,4.32
2019-02-16T02:40:20.496Z,4.28
2019-02-16T02:42:48.715Z,4.28
2019-02-16T02:45:16.899Z,4.26
2019-02-16T02:47:45.122Z,4.23
2019-02-16T02:50:13.310Z,4.19
2019-02-16T02:52:41.513Z,4.19
2019-02-16T02:55:09.714Z,4.17
2019-02-16T02:57:37.921Z,4.14
2019-02-16T03:00:08.547Z,4.11
2019-02-16T03:02:36.761Z,4.07
2019-02-16T03:05:06.163Z,4.04
2019-02-16T03:07:34.389Z,4.02
2019-02-16T03:10:02.588Z,4.01
2019-02-16T03:12:30.781Z,3.99
2019-02-16T03:14:59.004Z,3.98
2019-02-16T03:17:27.197Z,3.97
2019-02-16T03:19:55.391Z,3.94
2019-02-16T03:22:23.577Z,3.92
2019-02-16T03:24:51.784Z,3.91
2019-02-16T03:27:25.703Z,3.89
2019-02-16T03:29:57.185Z,3.86
2019-02-16T03:32:34.325Z,3.87
2019-02-16T03:35:27.185Z,3.85
2019-02-16T03:38:25.844Z,3.83
2019-02-16T03:40:54.039Z,3.80
2019-02-16T03:43:22.225Z,3.75
2019-02-16T03:45:50.454Z,3.73
2019-02-16T03:48:18.636Z,3.73
2019-02-16T03:50:46.871Z,3.73
2019-02-16T03:53:15.121Z,3.74
2019-02-16T03:55:43.306Z,3.74
2019-02-16T03:58:11.484Z,3.75
2019-02-16T04:00:39.684Z,3.78
2019-02-16T04:03:07.862Z,3.79
2019-02-16T04:05:36.059Z,3.82
2019-02-16T04:08:04.258Z,3.81
2019-02-16T04:10:32.454Z,3.79
2019-02-16T04:13:00.659Z,3.78
2019-02-16T04:15:28.885Z,3.78
2019-02-16T04:17:57.090Z,3.78
2019-02-16T04:20:25.290Z,3.78
2019-02-16T04:22:53.488Z,3.75
2019-02-16T04:25:21.680Z,3.72
2019-02-16T04:27:49.863Z,3.71
2019-02-16T04:30:18.059Z,3.69
2019-02-16T04:32:46.242Z,3.68
2019-02-16T04:35:14.442Z,3.66
2019-02-16T04:37:42.622Z,3.66
2019-02-16T04:40:10.819Z,3.64
2019-02-16T04:42:39.012Z,3.64
2019-02-16T04:45:07.217Z,3.64
2019-02-16T04:47:35.424Z,3.65
2019-02-16T04:50:04.558Z,3.66
2019-02-16T04:52:35.178Z,3.64
2019-02-16T04:55:02.674Z,3.63
2019-02-16T04:57:30.895Z,3.60
2019-02-16T04:59:59.091Z,3.58
2019-02-16T05:02:27.308Z,3.57
2019-02-16T05:04:55.496Z,3.55
2019-02-16T05:07:23.696Z,3.55
2019-02-16T05:09:51.916Z,3.55
2019-02-16T05:12:20.127Z,3.55
2019-02-16T05:14:48.306Z,3.54
2019-02-16T05:17:16.503Z,3.54
2019-02-16T05:19:44.706Z,3.50
2019-02-16T05:22:12.901Z,3.48
2019-02-16T05:24:41.083Z,3.47
2019-02-16T05:27:09.301Z,3.45
2019-02-16T05:29:37.501Z,3.44
2019-02-16T05:32:05.708Z,3.39
2019-02-16T05:34:33.891Z,3.37
2019-02-16T05:37:02.116Z,3.37
2019-02-16T05:39:30.305Z,3.37
2019-02-16T05:41:58.496Z,3.35
2019-02-16T05:44:26.710Z,3.33
2019-02-16T05:46:54.890Z,3.34
2019-02-16T05:49:23.061Z,3.40
2019-02-16T05:51:51.272Z,3.50
2019-02-16T05:54:19.449Z,3.65
2019-02-16T05:56:47.672Z,3.74
2019-02-16T05:59:15.889Z,3.86
2019-02-16T06:01:53.265Z,3.96
2019-02-16T06:04:14.034Z,4.07
2019-02-16T06:06:42.226Z,4.25
2019-02-16T06:09:10.444Z,4.39
2019-02-16T06:11:38.643Z,4.49
2019-02-16T06:14:06.826Z,4.65
2019-02-16T06:16:35.019Z,4.76
2019-02-16T06:19:03.206Z,4.96
2019-02-16T06:21:31.401Z,5.06
2019-02-16T06:23:59.608Z,5.11
2019-02-16T06:26:27.789Z,5.24
2019-02-16T06:28:55.982Z,5.38
2019-02-16T06:31:24.170Z,5.52
2019-02-16T06:33:52.365Z,5.64
2019-02-16T06:36:22.180Z,5.75
2019-02-16T06:38:50.379Z,5.86
2019-02-16T06:41:18.554Z,5.99
2019-02-16T06:43:46.745Z,6.08
2019-02-16T06:46:14.931Z,6.13
2019-02-16T06:48:43.142Z,6.20
2019-02-16T06:51:11.329Z,6.23
2019-02-16T06:53:39.514Z,6.26
2019-02-16T06:56:09.328Z,6.31
2019-02-16T06:58:37.558Z,6.33
2019-02-16T07:01:05.742Z,6.34
2019-02-16T07:03:33.946Z,6.35
2019-02-16T07:06:02.123Z,6.37
2019-02-16T07:08:30.316Z,6.40
2019-02-16T07:10:58.499Z,6.45
2019-02-16T07:13:26.714Z,6.51
2019-02-16T07:16:08.380Z,6.56
2019-02-16T07:18:38.214Z,6.60
2019-02-16T07:21:06.400Z,6.69
2019-02-16T07:23:34.595Z,6.75
2019-02-16T07:26:04.844Z,6.83
2019-02-16T07:28:32.718Z,6.91
2019-02-16T07:31:00.903Z,7.02
2019-02-16T07:33:29.094Z,7.11
2019-02-16T07:35:57.277Z,7.21
2019-02-16T07:38:25.473Z,7.31
2019-02-16T07:40:53.646Z,7.46
2019-02-16T07:43:38.839Z,7.71
2019-02-16T07:46:26.814Z,7.99
2019-02-16T07:49:05.667Z,8.38
2019-02-16T07:51:35.487Z,8.79
2019-02-16T07:54:14.147Z,9.14
2019-02-16T07:56:43.972Z,9.50
2019-02-16T07:59:16.841Z,9.89
2019-02-16T08:01:49.736Z,10.20
2019-02-16T08:04:19.578Z,10.46
2019-02-16T08:06:57.933Z,10.68
2019-02-16T08:09:27.772Z,10.91
2019-02-16T08:12:00.418Z,11.11
2019-02-16T08:14:32.902Z,11.29
2019-02-16T08:17:02.741Z,11.38
2019-02-16T08:19:47.578Z,11.47
2019-02-16T08:22:23.379Z,11.57
2019-02-16T08:25:11.303Z,11.60
2019-02-16T08:27:44.116Z,11.64
2019-02-16T08:30:16.669Z,11.69
2019-02-16T08:32:46.513Z,11.68
2019-02-16T08:35:16.350Z,11.68
2019-02-16T08:37:55.196Z,11.68
2019-02-16T08:40:30.774Z,11.72
2019-02-16T08:43:00.596Z,11.75
2019-02-16T08:45:30.441Z,11.80
2019-02-16T08:48:15.315Z,11.85
2019-02-16T08:50:45.150Z,11.91
2019-02-16T08:53:31.412Z,11.91
2019-02-16T08:56:01.253Z,11.96
2019-02-16T08:58:49.118Z,11.97
2019-02-16T09:01:28.125Z,11.94
2019-02-16T09:04:00.802Z,11.92
2019-02-16T09:06:46.569Z,11.96
2019-02-16T09:09:32.998Z,12.07
2019-02-16T09:12:06.064Z,12.13
2019-02-16T09:14:35.970Z,12.25
2019-02-16T09:17:08.243Z,12.29
2019-02-16T09:19:38.075Z,12.40
2019-02-16T09:22:10.576Z,12.52
2019-02-16T09:24:52.628Z,12.60
2019-02-16T09:27:25.172Z,12.61
2019-02-16T09:29:54.997Z,12.57
2019-02-16T09:32:33.867Z,12.57
2019-02-16T09:35:06.692Z,12.63
2019-02-16T09:37:42.467Z,12.75
2019-02-16T09:40:12.284Z,12.87
2019-02-16T09:42:50.618Z,12.97
2019-02-16T09:45:38.248Z,13.07
2019-02-16T09:48:10.790Z,13.26
2019-02-16T09:50:40.630Z,13.52
2019-02-16T09:53:10.473Z,13.74
2019-02-16T09:55:40.292Z,13.96
2019-02-16T09:58:25.454Z,14.20
2019-02-16T10:00:58.213Z,14.42
2019-02-16T10:03:42.776Z,14.57
2019-02-16T10:06:24.666Z,14.71
2019-02-16T10:08:57.440Z,14.90
2019-02-16T10:11:36.505Z,15.01
2019-02-16T10:14:09.099Z,15.14
2019-02-16T10:16:50.556Z,15.33
2019-02-16T10:19:23.325Z,15.53
2019-02-16T10:22:04.862Z,15.73
2019-02-16T10:24:52.873Z,15.87
2019-02-16T10:27:22.738Z,16.04
2019-02-16T10:29:52.579Z,16.25
2019-02-16T10:32:25.151Z,16.43
2019-02-16T10:34:54.987Z,16.61
2019-02-16T10:37:37.114Z,16.83
2019-02-16T10:40:07.475Z,17.05
2019-02-16T10:42:39.963Z,17.23
2019-02-16T10:45:09.792Z,17.37
2019-02-16T10:47:42.777Z,17.54
2019-02-16T10:50:18.767Z,17.66
2019-02-16T10:52:54.769Z,17.78
2019-02-16T10:55:24.610Z,17.79
2019-02-16T10:57:54.448Z,17.86
2019-02-16T11:00:30.187Z,17.92
2019-02-16T11:03:18.469Z,18.01
2019-02-16T11:05:48.314Z,18.01
2019-02-16T11:08:26.917Z,17.92
2019-02-16T11:10:56.780Z,17.94
2019-02-16T11:13:26.656Z,18.03
2019-02-16T11:15:59.415Z,18.08
2019-02-16T11:18:41.507Z,18.14
2019-02-16T11:21:20.585Z,18.13
2019-02-16T11:23:53.039Z,18.24
2019-02-16T11:26:22.892Z,18.40
2019-02-16T11:29:04.452Z,18.56
2019-02-16T11:31:34.308Z,18.79
2019-02-16T11:34:10.196Z,18.96
2019-02-16T11:36:40.038Z,19.04
2019-02-16T11:39:09.881Z,19.11
2019-02-16T11:41:42.436Z,19.26
2019-02-16T11:44:12.289Z,19.32
2019-02-16T11:46:51.144Z,19.27
2019-02-16T11:49:26.919Z,19.29
2019-02-16T11:52:03.409Z,19.40
2019-02-16T11:54:45.705Z,19.44
2019-02-16T11:57:30.235Z,19.48
2019-02-16T12:00:00.230Z,19.42
2019-02-16T12:02:39.226Z,19.40
2019-02-16T12:05:01.594Z,19.50
2019-02-16T12:07:34.091Z,19.59
2019-02-16T12:10:09.454Z,19.69
2019-02-16T12:12:45.028Z,19.85
2019-02-16T12:15:23.580Z,19.94
2019-02-16T12:17:53.435Z,19.95
2019-02-16T12:20:35.440Z,20.00
2019-02-16T12:23:07.959Z,19.98
2019-02-16T12:25:52.464Z,19.98
2019-02-16T12:28:37.243Z,20.03
2019-02-16T12:31:07.092Z,20.03
2019-02-16T12:33:39.999Z,20.04
2019-02-16T12:36:15.921Z,20.14
2019-02-16T12:38:54.680Z,20.30
2019-02-16T12:41:24.525Z,20.30
2019-02-16T12:43:54.363Z,20.23
2019-02-16T12:46:27.069Z,20.17
2019-02-16T12:48:56.907Z,20.03
2019-02-16T12:51:38.648Z,19.79
2019-02-16T12:54:08.715Z,19.79
2019-02-16T12:56:38.617Z,19.89
2019-02-16T12:59:17.104Z,19.89
2019-02-16T13:01:46.959Z,20.06
2019-02-16T13:04:26.036Z,20.03
2019-02-16T13:06:55.888Z,19.78
2019-02-16T13:09:25.725Z,19.78
2019-02-16T13:11:55.594Z,19.82
2019-02-16T13:14:37.709Z,19.79
2019-02-16T13:17:24.123Z,19.71
2019-02-16T13:19:56.364Z,19.65
2019-02-16T13:22:28.615Z,19.56
2019-02-16T13:25:01.211Z,19.45
2019-02-16T13:27:33.824Z,19.40
2019-02-16T13:30:09.169Z,19.35
2019-02-16T13:32:39.014Z,19.21
2019-02-16T13:35:12.125Z,19.03
2019-02-16T13:37:41.996Z,18.89
2019-02-16T13:40:14.792Z,18.80
2019-02-16T13:43:00.724Z,18.72
2019-02-16T13:45:30.558Z,18.70
2019-02-16T13:48:00.409Z,18.60
2019-02-16T13:50:42.069Z,18.50
2019-02-16T13:53:11.915Z,18.52
2019-02-16T13:55:44.554Z,18.51
2019-02-16T13:58:14.400Z,18.51
2019-02-16T14:00:44.243Z,18.52
2019-02-16T14:03:20.376Z,18.50
2019-02-16T14:05:50.259Z,18.49
2019-02-16T14:08:22.744Z,18.49
2019-02-16T14:10:52.576Z,18.40
2019-02-16T14:13:22.421Z,18.35
2019-02-16T14:15:58.276Z,18.35
2019-02-16T14:18:26.486Z,18.34
2019-02-16T14:20:54.681Z,18.33
2019-02-16T14:23:22.884Z,18.36
2019-02-16T14:25:51.083Z,18.34
2019-02-16T14:28:19.292Z,18.21
2019-02-16T14:30:47.506Z,18.16
2019-02-16T14:33:15.715Z,18.10
2019-02-16T14:35:43.924Z,18.04
2019-02-16T14:38:16.435Z,17.95
2019-02-16T14:40:44.637Z,17.85
2019-02-16T14:43:12.837Z,17.72
2019-02-16T14:45:41.606Z,17.75
2019-02-16T14:48:09.814Z,17.74
2019-02-16T14:50:38.003Z,17.76
2019-02-16T14:53:06.221Z,17.74
2019-02-16T14:55:34.456Z,17.73
2019-02-16T14:58:02.659Z,17.75
2019-02-16T15:00:30.864Z,17.70
2019-02-16T15:02:59.067Z,17.59
2019-02-16T15:05:27.294Z,17.53
2019-02-16T15:07:55.532Z,17.47
2019-02-16T15:10:23.733Z,17.40
2019-02-16T15:12:51.924Z,17.35
2019-02-16T15:15:20.154Z,17.35
2019-02-16T15:17:48.351Z,17.29
2019-02-16T15:20:17.012Z,17.24
2019-02-16T15:22:45.229Z,17.17
2019-02-16T15:25:13.439Z,17.07
2019-02-16T15:27:41.657Z,17.00
2019-02-16T15:30:18.350Z,16.89
2019-02-16T15:32:46.546Z,16.77
2019-02-16T15:35:14.777Z,16.64
2019-02-16T15:37:43.155Z,16.52
2019-02-16T15:40:11.528Z,16.45
2019-02-16T15:42:39.722Z,16.41
2019-02-16T15:45:12.544Z,16.34
2019-02-16T15:47:40.743Z,16.29
2019-02-16T15:50:11.198Z,16.26
2019-02-16T15:52:39.396Z,16.19
2019-02-16T15:55:09.538Z,16.12
2019-02-16T15:57:37.760Z,16.07
2019-02-16T16:00:10.606Z,15.98
2019-02-16T16:02:38.812Z,15.93
2019-02-16T16:05:07.003Z,15.84
2019-02-16T16:07:35.208Z,15.78
2019-02-16T16:10:05.053Z,15.72
2019-02-16T16:12:52.896Z,15.67
2019-02-16T16:15:42.366Z,15.61
2019-02-16T16:18:18.367Z,15.52
2019-02-16T16:20:53.925Z,15.43
2019-02-16T16:23:38.968Z,15.35
2019-02-16T16:26:08.813Z,15.29
2019-02-16T16:28:41.349Z,15.18
2019-02-16T16:31:11.653Z,15.09
2019-02-16T16:33:59.563Z,15.01
2019-02-16T16:36:29.409Z,14.94
2019-02-16T16:38:59.394Z,14.87
2019-02-16T16:41:45.533Z,14.81
2019-02-16T16:44:33.726Z,14.75
2019-02-16T16:47:09.590Z,14.67
2019-02-16T16:49:42.174Z,14.59
2019-02-16T16:52:21.005Z,14.49
2019-02-16T16:54:59.361Z,14.39
2019-02-16T16:57:31.907Z,14.32
2019-02-16T17:00:18.319Z,14.26
2019-02-16T17:02:50.603Z,14.22
2019-02-16T17:05:20.445Z,14.17
2019-02-16T17:08:05.298Z,14.11
2019-02-16T17:10:47.424Z,14.06
2019-02-16T17:13:26.028Z,13.98
2019-02-16T17:15:55.854Z,13.90
2019-02-16T17:18:43.833Z,13.83
2019-02-16T17:21:30.020Z,13.76
2019-02-16T17:23:59.868Z,13.64
2019-02-16T17:26:37.887Z,13.54
2019-02-16T17:29:16.442Z,13.45
2019-02-16T17:31:49.275Z,13.36
2019-02-16T17:34:25.093Z,13.24
2019-02-16T17:36:57.582Z,13.14
2019-02-16T17:39:27.427Z,13.06
2019-02-16T17:42:09.053Z,12.97
2019-02-16T17:44:55.067Z,12.86
2019-02-16T17:47:28.014Z,12.71
2019-02-16T17:50:00.541Z,12.55
2019-02-16T17:52:46.589Z,12.40
2019-02-16T17:55:19.250Z,12.30
2019-02-16T17:57:51.848Z,12.20
2019-02-16T18:00:24.333Z,12.09
2019-02-16T18:02:54.203Z,11.97
2019-02-16T18:05:27.266Z,11.88
2019-02-16T18:07:57.105Z,11.80
2019-02-16T18:10:26.977Z,11.73
2019-02-16T18:13:06.103Z,11.66
2019-02-16T18:15:52.164Z,11.56
2019-02-16T18:18:24.429Z,11.48
2019-02-16T18:20:56.942Z,11.39
2019-02-16T18:23:26.779Z,11.31
2019-02-16T18:25:59.449Z,11.24
2019-02-16T18:28:31.690Z,11.13
2019-02-16T18:31:04.571Z,11.03
2019-02-16T18:33:49.677Z,11.35
2019-02-16T18:36:31.238Z,11.30
2019-02-16T18:39:06.915Z,11.17
2019-02-16T18:41:36.753Z,11.08
2019-02-16T18:44:12.554Z,11.18
2019-02-16T18:47:00.532Z,11.34
2019-02-16T18:49:33.056Z,11.49
2019-02-16T18:52:02.919Z,11.69
2019-02-16T18:54:35.656Z,11.86
2019-02-16T18:57:06.898Z,11.98
2019-02-16T18:59:53.216Z,12.03
2019-02-16T19:02:39.268Z,12.14
2019-02-16T19:05:18.435Z,12.23
2019-02-16T19:07:48.329Z,12.31
2019-02-16T19:10:20.630Z,12.37
2019-02-16T19:12:50.467Z,12.22
2019-02-16T19:15:36.747Z,11.99
2019-02-16T19:18:21.857Z,11.78
2019-02-16T19:20:54.470Z,11.54
2019-02-16T19:23:40.747Z,11.34
2019-02-16T19:26:13.504Z,11.19
2019-02-16T19:28:55.671Z,11.05
2019-02-16T19:31:25.518Z,10.94
2019-02-16T19:34:04.427Z,10.79
2019-02-16T19:36:43.174Z,10.69
2019-02-16T19:39:18.502Z,10.59
2019-02-16T19:42:04.200Z,10.50
2019-02-16T19:44:36.981Z,10.40
2019-02-16T19:47:06.826Z,10.28
2019-02-16T19:49:45.641Z,10.21
2019-02-16T19:52:24.287Z,10.12
2019-02-16T19:54:56.821Z,10.06
2019-02-16T19:57:27.358Z,10.01
2019-02-16T20:00:06.356Z,9.95
2019-02-16T20:02:54.650Z,9.87
2019-02-16T20:05:40.617Z,9.78
2019-02-16T20:08:19.612Z,9.71
2019-02-16T20:11:01.161Z,9.66
2019-02-16T20:13:47.665Z,9.58
2019-02-16T20:16:20.455Z,9.51
2019-02-16T20:18:50.292Z,9.45
2019-02-16T20:21:26.058Z,9.41
2019-02-16T20:24:04.870Z,9.36
2019-02-16T20:26:52.877Z,9.28
2019-02-16T20:29:22.714Z,9.20
2019-02-16T20:31:55.499Z,9.15
2019-02-16T20:34:36.949Z,9.10
2019-02-16T20:37:22.052Z,9.04
2019-02-16T20:39:51.887Z,9.00
2019-02-16T20:42:40.059Z,8.94
2019-02-16T20:45:16.230Z,8.87
2019-02-16T20:47:48.707Z,8.80
2019-02-16T20:50:33.489Z,8.78
2019-02-16T20:53:03.345Z,8.74
2019-02-16T20:55:33.174Z,8.70
2019-02-16T20:58:20.501Z,8.67
2019-02-16T21:01:02.391Z,8.65
2019-02-16T21:03:32.229Z,8.61
2019-02-16T21:06:02.067Z,8.60
2019-02-16T21:08:40.980Z,8.59
2019-02-16T21:11:16.563Z,8.59
2019-02-16T21:13:46.405Z,8.60
2019-02-16T21:16:32.554Z,8.60
2019-02-16T21:19:14.698Z,8.58
2019-02-16T21:22:02.999Z,8.57
2019-02-16T21:24:48.061Z,8.57
2019-02-16T21:27:23.899Z,8.57
2019-02-16T21:30:09.967Z,8.59
2019-02-16T21:32:39.788Z,8.62
2019-02-16T21:35:09.650Z,8.62
2019-02-16T21:37:42.236Z,8.63
2019-02-16T21:40:15.145Z,8.63
2019-02-16T21:42:46.304Z,8.64
2019-02-16T21:45:18.993Z,8.63
2019-02-16T21:47:51.280Z,8.66
2019-02-16T21:50:37.310Z,8.70
2019-02-16T21:53:07.144Z,8.74
2019-02-16T21:55:39.770Z,8.78
2019-02-16T21:58:25.770Z,8.79
2019-02-16T22:01:01.563Z,8.82
2019-02-16T22:03:34.371Z,8.86
2019-02-16T22:06:04.206Z,8.90
2019-02-16T22:08:50.460Z,8.94
2019-02-16T22:11:20.298Z,9.02
2019-02-16T22:13:48.486Z,9.12
2019-02-16T22:16:16.694Z,9.19
2019-02-16T22:18:44.879Z,9.30
2019-02-16T22:21:13.106Z,9.41
2019-02-16T22:23:41.297Z,9.51
2019-02-16T22:26:09.517Z,9.60
2019-02-16T22:28:37.732Z,9.68
2019-02-16T22:31:05.938Z,9.76
2019-02-16T22:33:34.137Z,9.83
2019-02-16T22:36:02.333Z,9.89
2019-02-16T22:38:30.520Z,9.95
2019-02-16T22:40:58.753Z,10.04
2019-02-16T22:43:26.948Z,10.09
2019-02-16T22:45:55.151Z,10.15
2019-02-16T22:48:23.382Z,10.22
2019-02-16T22:50:51.573Z,10.27
2019-02-16T22:53:19.766Z,10.31
2019-02-16T22:55:47.977Z,10.39
2019-02-16T22:58:16.190Z,10.44
2019-02-16T23:00:46.027Z,10.50
2019-02-16T23:03:14.232Z,10.55
2019-02-16T23:05:42.429Z,10.59
2019-02-16T23:08:10.656Z,10.65
2019-02-16T23:10:38.873Z,10.70
2019-02-16T23:13:07.089Z,10.74
2019-02-16T23:15:35.278Z,10.80
2019-02-16T23:18:03.489Z,10.84
2019-02-16T23:20:31.683Z,10.87
2019-02-16T23:22:59.920Z,10.89
2019-02-16T23:25:28.117Z,10.88
2019-02-16T23:27:56.326Z,10.89
2019-02-16T23:30:24.541Z,10.90
2019-02-16T23:32:52.755Z,10.89
2019-02-16T23:35:20.975Z,10.91
2019-02-16T23:37:49.204Z,10.91
2019-02-16T23:40:17.392Z,10.91
2019-02-16T23:42:45.597Z,10.92
2019-02-16T23:45:13.812Z,10.92
2019-02-16T23:47:42.040Z,10.94
2019-02-16T23:50:10.905Z,10.96
2019-02-16T23:52:39.115Z,10.98
2019-02-16T23:55:09.707Z,11.02
2019-02-16T23:57:37.918Z,11.04
